CheckWX is a tool to help pilots better visualize weather data.  It is not intended as a substitute for an official pre-flight weather briefing.

05:39:10 UTC

LFSI TAF
Saint-Dizier-Robinson (BA 113) Air Base Airport
Saint-Dizier/Robinson, France
TAF LFSI 200200Z 2003/2103 VRB02KT 7000 NSC TEMPO 2003/2008 4000 BR PROB30 TEMPO 2003/2008 0600 BCFG BECMG 2100/2102 4000 BR

Feb-20@
03:00 UTC

Feb-20 @ 03:00 UTC

Feb-21@
00:00 UTC

Feb-21 @ 00:00 UTC

TAF LFSI 200200Z 2003/2103 VRB02KT 7000 NSC
Wind
  • Variable at 2 KTS
Visibility
7,001 meters
Cloud Levels
  • No significant clouds

Feb-20@
03:00 UTC

Feb-20 @ 03:00 UTC

Feb-20@
08:00 UTC

Feb-20 @ 08:00 UTC

PROB30 TEMPO 2003/2008 0600 BCFG

Temporary - 30% Likelihood

Temporary - 30% Likelihood during this time.

Visibility
595 meters
Conditions
Patches of Fog

Feb-20@
03:00 UTC

Feb-20 @ 03:00 UTC

Feb-20@
08:00 UTC

Feb-20 @ 08:00 UTC

TEMPO 2003/2008 4000 BR

Temporary

TemporaryChanges expected for less than half the time period

Visibility
4,007 meters
Conditions
Mist

Feb-21@
00:00 UTC

Feb-21 @ 00:00 UTC

Feb-21@
03:00 UTC

Feb-21 @ 03:00 UTC

BECMG 2100/2102 4000 BR

Becoming

BecomingConditions expected by Thu, Feb 21, 2019 @ 02:00 UTC

Wind
  • Variable at 2 KTS
Visibility
4,007 meters
Conditions
Mist
Cloud Levels
  • No significant clouds